createdAt,value
2022-09-27T00:00:09.105Z,49.83
2022-09-27T00:02:43.594Z,46.37
2022-09-27T00:05:12.525Z,43.67
2022-09-27T00:07:42.753Z,48.17
2022-09-27T00:10:11.577Z,54.50
2022-09-27T00:12:40.822Z,56.63
2022-09-27T00:15:11.518Z,66.40
2022-09-27T00:17:42.897Z,69.20
2022-09-27T00:20:30.073Z,76.77
2022-09-27T00:23:00.318Z,78.37
2022-09-27T00:25:29.293Z,73.67
2022-09-27T00:27:58.030Z,64.83
2022-09-27T00:30:26.910Z,69.07
2022-09-27T00:32:55.804Z,63.40
2022-09-27T00:35:24.878Z,68.60
2022-09-27T00:37:53.620Z,71.27
2022-09-27T00:40:24.557Z,77.53
2022-09-27T00:42:53.421Z,70.40
2022-09-27T00:45:22.293Z,72.60
2022-09-27T00:47:55.882Z,71.10
2022-09-27T00:50:31.108Z,68.80
2022-09-27T00:53:11.464Z,66.23
2022-09-27T00:55:45.122Z,68.40
2022-09-27T00:58:15.913Z,67.73
2022-09-27T01:00:50.059Z,66.77
2022-09-27T01:03:32.251Z,74.90
2022-09-27T01:06:02.069Z,71.13
2022-09-27T01:08:50.006Z,66.10
2022-09-27T01:11:34.036Z,73.90
2022-09-27T01:14:17.616Z,65.53
2022-09-27T01:16:55.253Z,73.23
2022-09-27T01:19:52.511Z,70.13
2022-09-27T01:22:24.343Z,66.20
2022-09-27T01:25:11.555Z,60.07
2022-09-27T01:28:18.821Z,57.30
2022-09-27T01:30:55.432Z,52.57
2022-09-27T01:33:33.677Z,52.17
2022-09-27T01:36:10.437Z,64.23
2022-09-27T01:38:48.054Z,72.50
2022-09-27T01:41:27.642Z,60.43
2022-09-27T01:44:24.868Z,63.33
2022-09-27T01:47:04.933Z,58.13
2022-09-27T01:49:54.510Z,58.13
2022-09-27T01:52:28.443Z,59.77
2022-09-27T01:55:02.341Z,55.87
2022-09-27T01:58:00.586Z,51.43
2022-09-27T02:00:30.940Z,54.27
2022-09-27T02:03:07.364Z,52.60
2022-09-27T02:05:41.496Z,50.70
2022-09-27T02:08:36.444Z,51.33
2022-09-27T02:11:13.132Z,39.60
2022-09-27T02:13:52.047Z,28.97
2022-09-27T02:16:50.175Z,33.10
2022-09-27T02:19:33.786Z,33.37
2022-09-27T02:22:14.172Z,32.33
2022-09-27T02:24:47.693Z,35.10
2022-09-27T02:27:22.697Z,34.97
2022-09-27T02:29:59.484Z,38.17
2022-09-27T02:32:28.821Z,42.23
2022-09-27T02:35:02.905Z,36.63
2022-09-27T02:37:32.097Z,43.13
2022-09-27T02:40:01.097Z,62.73
2022-09-27T02:42:30.240Z,60.27
2022-09-27T02:44:59.420Z,63.63
2022-09-27T02:47:42.779Z,72.07
2022-09-27T02:50:43.403Z,74.53
2022-09-27T02:53:47.472Z,68.17
2022-09-27T02:56:44.758Z,82.37
2022-09-27T02:59:47.917Z,72.77
2022-09-27T03:02:33.953Z,80.00
2022-09-27T03:05:33.914Z,73.10
2022-09-27T03:08:04.976Z,74.37
2022-09-27T03:10:35.150Z,72.03
2022-09-27T03:13:05.147Z,68.50
2022-09-27T03:15:34.189Z,72.73
2022-09-27T03:18:03.050Z,84.97
2022-09-27T03:20:45.214Z,92.90
2022-09-27T03:23:21.283Z,85.93
2022-09-27T03:25:51.341Z,76.60
2022-09-27T03:28:20.560Z,85.50
2022-09-27T03:30:56.230Z,78.23
2022-09-27T03:33:46.699Z,73.13
2022-09-27T03:36:17.641Z,67.23
2022-09-27T03:38:46.392Z,68.43
2022-09-27T03:41:19.998Z,113.23
2022-09-27T03:43:49.539Z,78.17
2022-09-27T03:46:36.984Z,86.63
2022-09-27T03:49:06.191Z,78.33
2022-09-27T03:51:36.564Z,91.13
2022-09-27T03:54:05.696Z,78.73
2022-09-27T03:56:34.410Z,73.30
2022-09-27T03:59:03.907Z,76.77
2022-09-27T04:01:45.595Z,76.03
2022-09-27T04:04:33.216Z,90.70
2022-09-27T04:07:03.512Z,92.53
2022-09-27T04:09:32.845Z,106.40
2022-09-27T04:12:03.782Z,98.97
2022-09-27T04:14:32.488Z,109.80
2022-09-27T04:17:19.678Z,112.57
2022-09-27T04:20:18.965Z,106.53
2022-09-27T04:22:49.329Z,98.30
2022-09-27T04:25:18.123Z,78.90
2022-09-27T04:27:50.505Z,101.30
2022-09-27T04:30:19.496Z,85.53
2022-09-27T04:33:07.172Z,99.07
2022-09-27T04:36:05.539Z,121.50
2022-09-27T04:38:37.381Z,132.93
2022-09-27T04:41:07.428Z,153.80
2022-09-27T04:43:38.520Z,136.13
2022-09-27T04:46:08.303Z,140.70
2022-09-27T04:48:37.539Z,120.93
2022-09-27T04:51:06.559Z,134.03
2022-09-27T04:53:37.187Z,112.80
2022-09-27T04:56:06.946Z,125.87
2022-09-27T04:58:37.195Z,106.70
2022-09-27T05:01:06.463Z,118.17
2022-09-27T05:04:01.852Z,121.13
2022-09-27T05:06:52.477Z,134.43
2022-09-27T05:09:31.986Z,152.00
2022-09-27T05:12:19.231Z,120.40
2022-09-27T05:14:58.114Z,125.33
2022-09-27T05:17:45.835Z,124.50
2022-09-27T05:20:33.302Z,115.77
2022-09-27T05:23:15.805Z,108.50
2022-09-27T05:25:46.025Z,93.37
2022-09-27T05:28:14.845Z,84.90
2022-09-27T05:30:44.177Z,95.73
2022-09-27T05:33:19.418Z,73.37
2022-09-27T05:35:54.910Z,74.43
2022-09-27T05:38:27.624Z,66.10
2022-09-27T05:41:00.712Z,82.03
2022-09-27T05:43:29.975Z,73.20
2022-09-27T05:46:02.727Z,98.47
2022-09-27T05:48:31.701Z,106.43
2022-09-27T05:51:08.802Z,107.60
2022-09-27T05:53:40.829Z,97.47
2022-09-27T05:56:18.695Z,74.17
2022-09-27T05:59:13.802Z,64.13
2022-09-27T06:02:03.404Z,70.80
2022-09-27T06:04:50.992Z,53.57
2022-09-27T06:07:49.839Z,47.93
2022-09-27T06:10:24.518Z,47.17
2022-09-27T06:12:56.341Z,54.93
2022-09-27T06:15:41.829Z,48.83
2022-09-27T06:18:12.653Z,55.00
2022-09-27T06:20:43.206Z,64.43
2022-09-27T06:23:14.107Z,55.40
2022-09-27T06:25:43.588Z,65.47
2022-09-27T06:28:35.739Z,76.07
2022-09-27T06:31:08.643Z,70.27
2022-09-27T06:33:43.140Z,86.93
2022-09-27T06:36:12.360Z,104.13
2022-09-27T06:38:42.916Z,104.20
2022-09-27T06:41:19.629Z,105.30
2022-09-27T06:44:04.060Z,87.27
2022-09-27T06:46:35.732Z,82.03
2022-09-27T06:49:13.572Z,84.10
2022-09-27T06:51:43.660Z,72.03
2022-09-27T06:54:13.425Z,62.40
2022-09-27T06:56:42.943Z,58.70
2022-09-27T06:59:31.229Z,65.13
2022-09-27T07:02:19.209Z,64.57
2022-09-27T07:05:02.786Z,51.83
2022-09-27T07:07:49.468Z,46.60
2022-09-27T07:10:18.737Z,63.10
2022-09-27T07:12:48.956Z,50.83
2022-09-27T07:15:21.337Z,46.07
2022-09-27T07:17:57.132Z,40.73
2022-09-27T07:20:27.351Z,44.80
2022-09-27T07:22:56.369Z,44.80
2022-09-27T07:25:26.848Z,47.00
2022-09-27T07:27:56.573Z,51.60
2022-09-27T07:30:27.497Z,50.27
2022-09-27T07:33:00.445Z,38.70
2022-09-27T07:35:30.024Z,39.70
2022-09-27T07:37:59.588Z,46.20
2022-09-27T07:40:29.067Z,54.53
2022-09-27T07:42:58.717Z,50.40
2022-09-27T07:45:29.173Z,30.90
2022-09-27T07:48:17.993Z,43.97
2022-09-27T07:51:07.883Z,30.67
2022-09-27T07:53:44.559Z,32.83
2022-09-27T07:56:48.741Z,39.17
2022-09-27T07:59:20.406Z,46.03
2022-09-27T08:01:50.810Z,47.33
2022-09-27T08:04:19.720Z,48.87
2022-09-27T08:06:48.727Z,55.47
2022-09-27T08:09:17.611Z,44.37
2022-09-27T08:12:05.556Z,40.93
2022-09-27T08:14:39.211Z,40.40
2022-09-27T08:17:13.612Z,38.93
2022-09-27T08:20:04.277Z,39.23
2022-09-27T08:23:08.363Z,35.03
2022-09-27T08:25:40.512Z,44.80
2022-09-27T08:28:28.538Z,43.47
2022-09-27T08:31:05.613Z,41.37
2022-09-27T08:33:41.209Z,32.30
2022-09-27T08:36:14.419Z,37.53
2022-09-27T08:38:43.371Z,33.20
2022-09-27T08:41:24.471Z,38.53
2022-09-27T08:44:08.036Z,30.93
2022-09-27T08:46:48.908Z,33.60
2022-09-27T08:49:25.713Z,31.97
2022-09-27T08:51:56.223Z,27.37
2022-09-27T08:54:28.733Z,34.87
2022-09-27T08:57:03.768Z,39.10
2022-09-27T09:00:03.124Z,42.00
2022-09-27T09:02:32.451Z,41.27
2022-09-27T09:05:09.554Z,33.23
2022-09-27T09:07:53.280Z,34.90
2022-09-27T09:10:50.707Z,37.50
2022-09-27T09:13:32.086Z,31.27
2022-09-27T09:16:14.382Z,35.07
2022-09-27T09:19:17.025Z,32.90
2022-09-27T09:22:09.767Z,41.53
2022-09-27T09:24:52.614Z,31.40
2022-09-27T09:27:29.909Z,26.87
2022-09-27T09:30:15.713Z,33.33
2022-09-27T09:33:11.673Z,31.83
2022-09-27T09:35:46.007Z,28.83
2022-09-27T09:38:42.010Z,31.17
2022-09-27T09:41:23.139Z,23.80
2022-09-27T09:43:57.204Z,30.13
2022-09-27T09:46:32.413Z,25.70
2022-09-27T09:49:08.273Z,29.13
2022-09-27T09:51:43.631Z,25.80
2022-09-27T09:54:21.665Z,24.53
2022-09-27T09:56:54.591Z,29.67
2022-09-27T09:59:29.417Z,20.00
2022-09-27T10:02:09.329Z,27.90
2022-09-27T10:04:38.333Z,22.67
2022-09-27T10:07:07.746Z,26.07
2022-09-27T10:09:38.895Z,29.87
2022-09-27T10:12:27.817Z,22.80
2022-09-27T10:15:01.118Z,28.93
2022-09-27T10:17:37.363Z,25.40
2022-09-27T10:20:08.557Z,24.87
2022-09-27T10:23:00.204Z,20.43
2022-09-27T10:25:52.549Z,25.83
2022-09-27T10:28:56.527Z,24.17
2022-09-27T10:31:39.075Z,17.10
2022-09-27T10:34:27.021Z,25.03
2022-09-27T10:37:08.077Z,22.17
2022-09-27T10:39:39.520Z,22.50
2022-09-27T10:42:24.655Z,16.57
2022-09-27T10:44:54.324Z,24.00
2022-09-27T10:47:34.803Z,28.00
2022-09-27T10:50:45.873Z,27.17
2022-09-27T10:53:23.918Z,21.57
2022-09-27T10:56:07.316Z,22.27
2022-09-27T10:58:40.063Z,19.40
2022-09-27T11:01:14.145Z,20.30
2022-09-27T11:04:22.153Z,18.33
2022-09-27T11:06:51.194Z,23.37
2022-09-27T11:09:24.489Z,22.70
2022-09-27T11:12:10.479Z,21.37
2022-09-27T11:14:42.176Z,18.65
2022-09-27T11:17:17.217Z,11.07
2022-09-27T11:20:22.950Z,8.27
2022-09-27T11:23:19.606Z,18.50
2022-09-27T11:26:04.085Z,10.27
2022-09-27T11:28:48.464Z,19.73
2022-09-27T11:31:37.755Z,9.50
2022-09-27T11:34:32.360Z,8.63
2022-09-27T11:37:28.883Z,9.97
2022-09-27T11:40:12.802Z,15.00
2022-09-27T11:43:04.381Z,24.40
2022-09-27T11:46:13.411Z,17.70
2022-09-27T11:49:09.765Z,19.73
2022-09-27T11:51:55.290Z,15.73
2022-09-27T11:54:48.066Z,8.73
2022-09-27T11:57:23.502Z,9.67
2022-09-27T12:00:16.033Z,20.53
2022-09-27T12:03:22.209Z,29.67
2022-09-27T12:06:08.744Z,13.37
2022-09-27T12:08:54.545Z,14.83
2022-09-27T12:11:28.420Z,12.17
2022-09-27T12:14:01.208Z,16.73
2022-09-27T12:16:32.066Z,15.23
2022-09-27T12:19:03.432Z,20.60
2022-09-27T12:21:50.073Z,26.83
2022-09-27T12:24:22.670Z,29.47
2022-09-27T12:27:18.259Z,30.47
2022-09-27T12:29:50.122Z,17.90
2022-09-27T12:32:26.066Z,24.40
2022-09-27T12:35:01.510Z,17.77
2022-09-27T12:37:36.847Z,17.63
2022-09-27T12:40:16.397Z,16.67
2022-09-27T12:42:53.283Z,9.67
2022-09-27T12:45:44.690Z,11.33
2022-09-27T12:48:21.961Z,17.30
2022-09-27T12:50:55.017Z,28.73
2022-09-27T12:53:30.239Z,18.87
2022-09-27T12:56:24.447Z,16.70
2022-09-27T12:59:12.423Z,16.57
2022-09-27T13:02:03.300Z,11.67
2022-09-27T13:04:48.051Z,9.43
2022-09-27T13:07:36.679Z,10.93
2022-09-27T13:10:26.521Z,14.80
2022-09-27T13:12:58.557Z,9.37
2022-09-27T13:15:32.126Z,22.83
2022-09-27T13:18:54.273Z,12.80
2022-09-27T13:22:00.755Z,16.70
2022-09-27T13:24:48.464Z,15.80
2022-09-27T13:27:40.904Z,18.30
2022-09-27T13:30:49.042Z,15.20
2022-09-27T13:33:44.706Z,13.23
2022-09-27T13:36:32.530Z,17.80
2022-09-27T13:39:29.348Z,14.60
2022-09-27T13:42:41.771Z,19.70
2022-09-27T13:45:29.550Z,16.40
2022-09-27T13:48:01.974Z,18.97
2022-09-27T13:50:47.328Z,12.03
2022-09-27T13:53:24.868Z,16.50
2022-09-27T13:55:54.487Z,16.70
2022-09-27T13:58:52.097Z,22.57
2022-09-27T14:01:43.671Z,19.80
2022-09-27T14:04:37.003Z,21.53
2022-09-27T14:07:07.120Z,21.20
2022-09-27T14:09:39.677Z,22.40
2022-09-27T14:12:22.809Z,17.03
2022-09-27T14:14:56.326Z,19.10
2022-09-27T14:17:26.387Z,18.37
2022-09-27T14:19:56.227Z,20.83
2022-09-27T14:22:26.785Z,19.10
2022-09-27T14:25:00.718Z,14.47
2022-09-27T14:27:37.829Z,24.43
2022-09-27T14:30:22.655Z,18.87
2022-09-27T14:33:29.534Z,25.07
2022-09-27T14:36:44.556Z,17.47
2022-09-27T14:39:22.025Z,18.13
2022-09-27T14:41:52.968Z,23.40
2022-09-27T14:44:27.923Z,22.00
2022-09-27T14:47:12.392Z,19.30
2022-09-27T14:49:48.903Z,26.73
2022-09-27T14:52:21.710Z,23.47
2022-09-27T14:54:59.574Z,22.40
2022-09-27T14:57:30.352Z,24.23
2022-09-27T15:00:00.170Z,17.63
2022-09-27T15:02:30.625Z,18.60
2022-09-27T15:04:59.477Z,20.97
2022-09-27T15:07:28.675Z,27.60
2022-09-27T15:10:02.381Z,24.40
2022-09-27T15:12:31.636Z,18.37
2022-09-27T15:15:02.097Z,25.40
2022-09-27T15:17:44.105Z,29.87
2022-09-27T15:20:34.877Z,18.13
2022-09-27T15:23:05.575Z,20.47
2022-09-27T15:25:37.008Z,14.83
2022-09-27T15:28:07.791Z,14.70
2022-09-27T15:30:37.979Z,17.53
2022-09-27T15:33:20.572Z,27.77
2022-09-27T15:35:52.294Z,25.53
2022-09-27T15:38:28.184Z,29.27
2022-09-27T15:41:02.940Z,21.47
2022-09-27T15:43:35.322Z,28.43
2022-09-27T15:46:05.661Z,36.13
2022-09-27T15:48:37.981Z,70.37
2022-09-27T15:51:43.797Z,51.50
2022-09-27T15:54:14.087Z,40.00
2022-09-27T15:56:43.327Z,41.37
2022-09-27T15:59:18.151Z,35.33
2022-09-27T16:01:47.451Z,51.10
2022-09-27T16:04:16.365Z,74.77
2022-09-27T16:06:45.336Z,70.63
2022-09-27T16:09:19.414Z,66.73
2022-09-27T16:11:48.939Z,66.37
2022-09-27T16:14:20.010Z,76.20
2022-09-27T16:16:51.217Z,85.33
2022-09-27T16:19:20.786Z,73.73
2022-09-27T16:21:50.001Z,81.73
2022-09-27T16:24:20.069Z,57.47
2022-09-27T16:26:49.007Z,47.73
2022-09-27T16:29:17.995Z,41.00
2022-09-27T16:31:47.509Z,30.83
2022-09-27T16:34:16.398Z,35.47
2022-09-27T16:36:45.225Z,38.33
2022-09-27T16:39:15.362Z,35.07
2022-09-27T16:41:45.639Z,38.57
2022-09-27T16:44:36.270Z,27.43
2022-09-27T16:47:05.324Z,33.90
2022-09-27T16:49:51.469Z,31.17
2022-09-27T16:52:20.404Z,38.80
2022-09-27T16:54:49.069Z,41.13
2022-09-27T16:57:19.333Z,51.93
2022-09-27T16:59:48.379Z,48.20
2022-09-27T17:02:18.314Z,55.10
2022-09-27T17:04:49.347Z,80.40
2022-09-27T17:07:20.488Z,55.30
2022-09-27T17:10:09.236Z,51.97
2022-09-27T17:12:39.548Z,59.53
2022-09-27T17:15:09.557Z,59.47
2022-09-27T17:17:38.470Z,47.37
2022-09-27T17:20:07.703Z,33.47
2022-09-27T17:22:39.560Z,44.90
2022-09-27T17:25:10.326Z,46.83
2022-09-27T17:27:41.025Z,62.27
2022-09-27T17:30:11.000Z,50.70
2022-09-27T17:32:40.478Z,42.97
2022-09-27T17:35:10.348Z,43.23
2022-09-27T17:37:39.556Z,43.30
2022-09-27T17:40:09.130Z,35.73
2022-09-27T17:42:38.125Z,32.00
2022-09-27T17:45:09.768Z,27.43
2022-09-27T17:47:55.938Z,26.53
2022-09-27T17:50:28.869Z,34.07
2022-09-27T17:52:59.613Z,39.33
2022-09-27T17:55:28.495Z,58.80
2022-09-27T17:57:57.148Z,69.10
2022-09-27T18:00:27.578Z,66.93
2022-09-27T18:02:56.416Z,68.80
2022-09-27T18:05:25.115Z,88.47
2022-09-27T18:07:53.834Z,90.27
2022-09-27T18:10:22.630Z,84.30
2022-09-27T18:12:53.992Z,87.77
2022-09-27T18:15:23.310Z,86.93
2022-09-27T18:18:08.808Z,77.07
2022-09-27T18:20:38.081Z,62.60
2022-09-27T18:23:06.849Z,68.77
2022-09-27T18:25:40.420Z,47.87
2022-09-27T18:28:10.297Z,55.43
2022-09-27T18:30:39.391Z,55.40
2022-09-27T18:33:09.520Z,45.20
2022-09-27T18:35:38.266Z,32.33
2022-09-27T18:38:07.200Z,51.07
2022-09-27T18:40:55.705Z,34.33
2022-09-27T18:43:25.917Z,38.97
2022-09-27T18:45:55.185Z,37.43
2022-09-27T18:48:25.542Z,34.53
2022-09-27T18:50:54.491Z,33.97
2022-09-27T18:53:23.205Z,45.23
2022-09-27T18:55:51.904Z,55.60
2022-09-27T18:58:20.791Z,46.93
2022-09-27T19:00:49.749Z,49.57
2022-09-27T19:03:18.470Z,52.43
2022-09-27T19:05:55.761Z,63.93
2022-09-27T19:08:24.757Z,51.37
2022-09-27T19:10:54.137Z,49.60
2022-09-27T19:13:28.260Z,55.17
2022-09-27T19:15:59.750Z,55.97
2022-09-27T19:18:29.251Z,57.97
2022-09-27T19:21:08.361Z,56.57
2022-09-27T19:23:39.765Z,60.27
2022-09-27T19:26:09.984Z,57.10
2022-09-27T19:28:40.762Z,52.40
2022-09-27T19:31:12.115Z,59.07
2022-09-27T19:33:41.574Z,53.27
2022-09-27T19:36:13.445Z,46.77
2022-09-27T19:38:42.699Z,48.73
2022-09-27T19:41:13.535Z,42.23
2022-09-27T19:43:44.073Z,46.87
2022-09-27T19:46:15.597Z,48.07
2022-09-27T19:48:44.852Z,59.27
2022-09-27T19:51:17.424Z,47.97
2022-09-27T19:53:46.623Z,37.67
2022-09-27T19:56:35.133Z,34.73
2022-09-27T19:59:07.262Z,42.77
2022-09-27T20:01:37.093Z,40.47
2022-09-27T20:04:06.036Z,36.97
2022-09-27T20:06:36.688Z,39.20
2022-09-27T20:09:05.855Z,38.60
2022-09-27T20:11:35.059Z,32.83
2022-09-27T20:14:03.716Z,32.53
2022-09-27T20:16:33.123Z,36.67
2022-09-27T20:19:03.053Z,46.20
2022-09-27T20:21:34.334Z,35.17
2022-09-27T20:24:06.788Z,38.23
2022-09-27T20:26:38.563Z,34.80
2022-09-27T20:29:09.088Z,36.77
2022-09-27T20:31:56.960Z,37.30
2022-09-27T20:34:30.439Z,32.27
2022-09-27T20:36:59.158Z,33.47
2022-09-27T20:39:29.358Z,51.93
2022-09-27T20:41:58.392Z,38.83
2022-09-27T20:44:27.080Z,42.63
2022-09-27T20:46:56.977Z,141.37
2022-09-27T20:49:26.822Z,95.20
2022-09-27T20:51:55.445Z,105.23
2022-09-27T20:54:24.512Z,82.60
2022-09-27T20:56:55.520Z,70.30
2022-09-27T20:59:24.866Z,52.97
2022-09-27T21:01:54.020Z,40.60
2022-09-27T21:04:23.802Z,43.17
2022-09-27T21:06:53.409Z,31.00
2022-09-27T21:09:22.295Z,33.77
2022-09-27T21:11:52.200Z,28.70
2022-09-27T21:14:22.384Z,32.30
2022-09-27T21:16:51.496Z,42.37
2022-09-27T21:19:20.282Z,45.27
2022-09-27T21:21:48.982Z,49.10
2022-09-27T21:24:17.883Z,52.23
2022-09-27T21:26:46.605Z,64.13
2022-09-27T21:29:15.481Z,62.23
2022-09-27T21:31:45.913Z,51.87
2022-09-27T21:34:14.699Z,36.00
2022-09-27T21:36:43.460Z,32.83
2022-09-27T21:39:12.302Z,34.33
2022-09-27T21:41:41.036Z,32.80
2022-09-27T21:44:11.782Z,24.37
2022-09-27T21:46:42.184Z,26.87
2022-09-27T21:49:12.773Z,31.60
2022-09-27T21:51:42.608Z,27.60
2022-09-27T21:54:13.674Z,38.10
2022-09-27T21:57:02.028Z,30.87
2022-09-27T21:59:30.765Z,34.17
2022-09-27T22:01:59.650Z,28.17
2022-09-27T22:04:29.799Z,23.67
2022-09-27T22:06:58.578Z,19.93
2022-09-27T22:09:45.817Z,26.93
2022-09-27T22:12:14.706Z,24.07
2022-09-27T22:14:43.457Z,23.70
2022-09-27T22:17:12.165Z,32.27
2022-09-27T22:19:42.293Z,23.87
2022-09-27T22:22:11.175Z,22.70
2022-09-27T22:24:39.837Z,25.70
2022-09-27T22:27:08.597Z,23.37
2022-09-27T22:29:37.432Z,20.87
2022-09-27T22:32:06.297Z,16.67
2022-09-27T22:34:35.047Z,22.60
2022-09-27T22:37:05.355Z,15.73
2022-09-27T22:39:34.230Z,14.13
2022-09-27T22:42:02.952Z,13.23
2022-09-27T22:44:32.853Z,14.87
2022-09-27T22:47:01.731Z,13.07
2022-09-27T22:49:30.394Z,10.77
2022-09-27T22:51:59.092Z,20.50
2022-09-27T22:54:29.308Z,13.03
2022-09-27T22:56:58.435Z,15.27
2022-09-27T22:59:27.790Z,11.40
2022-09-27T23:01:57.112Z,8.33
2022-09-27T23:04:26.240Z,12.80
2022-09-27T23:06:55.301Z,14.77
2022-09-27T23:09:24.906Z,18.20
2022-09-27T23:11:55.877Z,16.33
2022-09-27T23:14:26.472Z,17.03
2022-09-27T23:16:55.225Z,32.47
2022-09-27T23:19:25.867Z,13.53
2022-09-27T23:21:54.572Z,14.37
2022-09-27T23:24:23.789Z,12.53
2022-09-27T23:27:13.344Z,16.47
2022-09-27T23:29:43.983Z,12.33
2022-09-27T23:32:12.766Z,10.50
2022-09-27T23:34:42.221Z,11.43
2022-09-27T23:37:10.922Z,13.97
2022-09-27T23:39:39.733Z,11.67
2022-09-27T23:42:08.950Z,12.90
2022-09-27T23:44:37.608Z,15.27
2022-09-27T23:47:08.087Z,9.87
2022-09-27T23:49:37.288Z,12.73
2022-09-27T23:52:06.142Z,9.47
2022-09-27T23:54:34.897Z,11.97
2022-09-27T23:57:03.707Z,10.90
2022-09-27T23:59:32.377Z,12.23
